Verona, WI

3:47 PM CST on January 24, 2017 (GMT -0600)
| | Change Station
Active Advisory: Winter Weather Advisory

Elev -9999 ft 0.00 °N, 0.00 °E | Updated 10 minutes ago

Overcast
Overcast
°F
Feels Like °F
N
Wind Variable Wind from North
Gusts mph

Today
High -- | Low -- °F
--% Chance of Precip.
Yesterday
High -- | Low -- °F
Precip. -- in
Pressure 29.82 in
Visibility 10.0 miles
Clouds Overcast 1200 ft
Dew Point Not available.
Humidity Not available.
Rainfall --
Snow Depth Not available.
7:20 AM 5:00 PM
Waning Crescent, 9% visible
METAR KC29 242135Z AUTO 00000KT 10SM OVC012 03/00 A2982 RMK AO1 T00300003
Pressure 29.82 in
Visibility 10.0 miles
Clouds Overcast 1200 ft
Dew Point Not available.
Humidity Not available.
Rainfall --
Snow Depth Not available.
7:20 AM 5:00 PM
Waning Crescent, 9% visible
METAR KC29 242135Z AUTO 00000KT 10SM OVC012 03/00 A2982 RMK AO1 T00300003

Get Your Daily Forecast Email!

Thanks for signing up!

Be on the lookout for a verification email in your inbox.

You'll start receiving the daily forecast at 8 AM.

×

10-Day Weather Forecast

Almanac

Astronomy

Jan. 24, 2017 Rise Set
Actual Time
Civil Twilight
Nautical Twilight
Astronomical Twilight
Moon
Length of Visible Light
Length of Day
Tomorrow will be .
, % of the Moon is Illuminated

Today's Extremes

State Highs State Lows

Community

WunderPhotos

Upload Photos

1,962,540 photos uploaded!

WunderBlog® & News

Nearby

Air Quality

  Air Quality AQ Index Pollutant
Not available.

Snow Depth

Station Depth Elevation

Earthquake Activity

City Distance Mag. Time & Date
Minimum magnitude displayed is 2.5.

Coastal Water Temperatures

Place Temperature

Stations

Nearby Weather Stations

Station Location Temp. Windchill Dew Point Humidity Wind Precip. Elev Updated Type
                   

Watches & Warnings

Winter Weather Advisory
Issued: 3:05 PM CST Jan. 24, 2017 – National Weather Service

... Winter Weather Advisory now in effect from 9 PM this evening
to midnight CST Wednesday night...

The Winter Weather Advisory is now in effect from 9 PM this
evening to midnight CST Wednesday night.

* Timing... snow developing by mid-evening and continuing at times
into Wednesday evening. The snow may mix with rain briefly now
and then.

* Snow accumulations... 5 to 8 inches.

* Impacts... hazardous travel from snow covered roads likely to
affect the morning and afternoon commutes on Wednesday.

Precautionary/preparedness actions...

A Winter Weather Advisory means that periods of snow... sleet... or
freezing rain will cause travel difficulties. Be prepared for
slippery roads and limited visibilities... and use caution while
driving.